SWA4037 KRSW-KCMH
Flight info
| Callsign | SWA4037 |
|---|---|
| Flight time | 2h 6m |
| Altitude | 33000 |
| Route | CSHEL7 CAMJO BURGG MCGNS SCRLT2 |
| Aircraft | B738/M-SDE2E3FGHIRWXY/LB1 |
Departure
| Time | 2026-05-08 23:06 |
|---|---|
| Airport | Southwest Florida International Airport (KRSW) |
Arrival
| Time | 2026-05-09 01:12 |
|---|---|
| Airport | John Glenn Columbus International Airport (KCMH) |
| Time | Latitude | Longitude | Altitude | Speed | Heading |
|---|---|---|---|---|---|
| 2026-05-08 22:49 | 26.52864 | -81.75302 | 41 ft | 0 kts | 143° |
| 2026-05-08 22:56 | 26.52876 | -81.75311 | 43 ft | 2 kts | 143° |
| 2026-05-08 22:56 | 26.52891 | -81.75318 | 42 ft | 2 kts | 198° |
| 2026-05-08 22:56 | 26.52901 | -81.75312 | 40 ft | 0 kts | 235° |
| 2026-05-08 22:57 | 26.52903 | -81.75334 | 43 ft | 6 kts | 308° |
| 2026-05-08 22:58 | 26.52939 | -81.75312 | 43 ft | 7 kts | 53° |
| 2026-05-08 22:58 | 26.52966 | -81.75270 | 42 ft | 7 kts | 53° |
| 2026-05-08 22:58 | 26.52993 | -81.75230 | 43 ft | 6 kts | 53° |
| 2026-05-08 22:58 | 26.53018 | -81.75190 | 40 ft | 6 kts | 54° |
| 2026-05-08 22:59 | 26.53044 | -81.75150 | 43 ft | 6 kts | 54° |
| 2026-05-08 22:59 | 26.53069 | -81.75112 | 43 ft | 6 kts | 53° |
| 2026-05-08 22:59 | 26.53091 | -81.75073 | 43 ft | 6 kts | 52° |
| 2026-05-08 22:59 | 26.53122 | -81.75044 | 43 ft | 6 kts | 19° |
| 2026-05-08 23:00 | 26.53202 | -81.75078 | 43 ft | 17 kts | 323° |
| 2026-05-08 23:00 | 26.53264 | -81.75130 | 43 ft | 17 kts | 323° |
| 2026-05-08 23:00 | 26.53354 | -81.75205 | 43 ft | 16 kts | 325° |
| 2026-05-08 23:00 | 26.53444 | -81.75273 | 43 ft | 15 kts | 326° |
| 2026-05-08 23:01 | 26.53525 | -81.75337 | 43 ft | 12 kts | 326° |
| 2026-05-08 23:01 | 26.53596 | -81.75341 | 43 ft | 11 kts | 55° |
| 2026-05-08 23:01 | 26.53658 | -81.75248 | 42 ft | 11 kts | 54° |
| 2026-05-08 23:01 | 26.53702 | -81.75179 | 43 ft | 11 kts | 54° |
| 2026-05-08 23:02 | 26.53731 | -81.75134 | 43 ft | 11 kts | 54° |
| 2026-05-08 23:02 | 26.53773 | -81.75067 | 41 ft | 11 kts | 54° |
| 2026-05-08 23:02 | 26.53824 | -81.74990 | 44 ft | 14 kts | 53° |
| 2026-05-08 23:02 | 26.53888 | -81.74892 | 42 ft | 17 kts | 55° |
| 2026-05-08 23:03 | 26.53965 | -81.74769 | 44 ft | 21 kts | 54° |
| 2026-05-08 23:03 | 26.54054 | -81.74635 | 44 ft | 22 kts | 52° |
| 2026-05-08 23:03 | 26.54145 | -81.74499 | 41 ft | 22 kts | 54° |
| 2026-05-08 23:03 | 26.54231 | -81.74364 | 41 ft | 21 kts | 53° |
| 2026-05-08 23:04 | 26.54314 | -81.74237 | 43 ft | 20 kts | 54° |
| 2026-05-08 23:04 | 26.54394 | -81.74110 | 44 ft | 20 kts | 54° |
| 2026-05-08 23:04 | 26.54478 | -81.73995 | 44 ft | 16 kts | 28° |
| 2026-05-08 23:04 | 26.54554 | -81.74046 | 43 ft | 14 kts | 282° |
| 2026-05-08 23:05 | 26.54514 | -81.74136 | 43 ft | 13 kts | 234° |
| 2026-05-08 23:05 | 26.54372 | -81.74355 | 41 ft | 75 kts | 234° |
| 2026-05-08 23:05 | 26.53907 | -81.75072 | 44 ft | 150 kts | 230° |
| 2026-05-08 23:05 | 26.53197 | -81.76116 | 498 ft | 182 kts | 232° |
| 2026-05-08 23:06 | 26.52365 | -81.77264 | 1290 ft | 198 kts | 229° |
| 2026-05-08 23:06 | 26.51518 | -81.78397 | 1657 ft | 182 kts | 233° |
| 2026-05-08 23:06 | 26.50768 | -81.79604 | 1598 ft | 208 kts | 234° |
| 2026-05-08 23:06 | 26.50001 | -81.81087 | 1817 ft | 235 kts | 252° |
| 2026-05-08 23:07 | 26.49742 | -81.82973 | 2096 ft | 262 kts | 267° |
| 2026-05-08 23:07 | 26.49645 | -81.85067 | 2672 ft | 276 kts | 269° |
| 2026-05-08 23:07 | 26.50006 | -81.87168 | 3446 ft | 281 kts | 297° |
| 2026-05-08 23:07 | 26.51232 | -81.88813 | 4351 ft | 276 kts | 326° |
| 2026-05-08 23:08 | 26.52955 | -81.89686 | 5269 ft | 271 kts | 347° |
| 2026-05-08 23:08 | 26.54817 | -81.90115 | 6041 ft | 277 kts | 349° |
| 2026-05-08 23:08 | 26.56725 | -81.90517 | 6757 ft | 282 kts | 349° |
| 2026-05-08 23:08 | 26.58681 | -81.90941 | 7422 ft | 289 kts | 348° |
| 2026-05-08 23:09 | 26.60679 | -81.91388 | 8081 ft | 297 kts | 347° |
| 2026-05-08 23:09 | 26.62714 | -81.91844 | 8866 ft | 298 kts | 348° |
| 2026-05-08 23:09 | 26.64806 | -81.91896 | 9540 ft | 307 kts | 6° |
| 2026-05-08 23:09 | 26.66937 | -81.91515 | 10204 ft | 313 kts | 8° |
| 2026-05-08 23:10 | 26.69150 | -81.91112 | 10481 ft | 333 kts | 7° |
| 2026-05-08 23:10 | 26.71520 | -81.90712 | 10654 ft | 355 kts | 7° |
| 2026-05-08 23:10 | 26.74020 | -81.90311 | 11008 ft | 368 kts | 6° |
| 2026-05-08 23:10 | 26.76571 | -81.89882 | 11595 ft | 373 kts | 10° |
| 2026-05-08 23:11 | 26.78989 | -81.88821 | 12250 ft | 377 kts | 29° |
| 2026-05-08 23:11 | 26.81247 | -81.87324 | 12942 ft | 379 kts | 30° |
| 2026-05-08 23:11 | 26.83521 | -81.85812 | 13553 ft | 382 kts | 29° |
| 2026-05-08 23:11 | 26.85830 | -81.84299 | 14111 ft | 386 kts | 28° |
| 2026-05-08 23:12 | 26.88169 | -81.82785 | 14619 ft | 390 kts | 28° |
| 2026-05-08 23:12 | 26.90541 | -81.81268 | 15130 ft | 395 kts | 27° |
| 2026-05-08 23:12 | 26.92941 | -81.79741 | 15647 ft | 398 kts | 26° |
| 2026-05-08 23:12 | 26.95408 | -81.78306 | 16154 ft | 402 kts | 24° |
| 2026-05-08 23:13 | 26.97937 | -81.76911 | 16649 ft | 407 kts | 23° |
| 2026-05-08 23:13 | 27.00506 | -81.75588 | 17156 ft | 408 kts | 14° |
| 2026-05-08 23:13 | 27.03276 | -81.75086 | 17646 ft | 402 kts | 355° |
| 2026-05-08 23:13 | 27.05974 | -81.75527 | 18192 ft | 395 kts | 340° |
| 2026-05-08 23:14 | 27.08610 | -81.76393 | 18669 ft | 396 kts | 338° |
| 2026-05-08 23:14 | 27.11252 | -81.77307 | 19147 ft | 398 kts | 337° |
| 2026-05-08 23:14 | 27.13903 | -81.78235 | 19638 ft | 400 kts | 337° |
| 2026-05-08 23:14 | 27.16571 | -81.79149 | 20140 ft | 401 kts | 337° |
| 2026-05-08 23:15 | 27.19257 | -81.80052 | 20611 ft | 404 kts | 337° |
| 2026-05-08 23:15 | 27.21962 | -81.80950 | 21095 ft | 406 kts | 338° |
| 2026-05-08 23:15 | 27.24680 | -81.81846 | 21569 ft | 408 kts | 337° |
| 2026-05-08 23:15 | 27.27406 | -81.82743 | 22044 ft | 410 kts | 337° |
| 2026-05-08 23:16 | 27.30150 | -81.83646 | 22510 ft | 412 kts | 337° |
| 2026-05-08 23:16 | 27.32905 | -81.84558 | 22935 ft | 414 kts | 337° |
| 2026-05-08 23:16 | 27.35671 | -81.85484 | 23355 ft | 416 kts | 336° |
| 2026-05-08 23:16 | 27.38438 | -81.86461 | 23738 ft | 417 kts | 335° |
| 2026-05-08 23:17 | 27.41207 | -81.87465 | 24102 ft | 419 kts | 335° |
| 2026-05-08 23:17 | 27.43985 | -81.88477 | 24457 ft | 420 kts | 335° |
| 2026-05-08 23:17 | 27.46771 | -81.89491 | 24809 ft | 422 kts | 335° |
| 2026-05-08 23:17 | 27.49571 | -81.90504 | 25158 ft | 424 kts | 335° |
| 2026-05-08 23:18 | 27.52388 | -81.91519 | 25496 ft | 425 kts | 335° |
| 2026-05-08 23:18 | 27.55213 | -81.92536 | 25824 ft | 427 kts | 335° |
| 2026-05-08 23:18 | 27.58052 | -81.93557 | 26144 ft | 429 kts | 335° |
| 2026-05-08 23:18 | 27.60905 | -81.94584 | 26461 ft | 431 kts | 335° |
| 2026-05-08 23:19 | 27.63770 | -81.95614 | 26786 ft | 433 kts | 335° |
| 2026-05-08 23:19 | 27.66643 | -81.96648 | 27098 ft | 434 kts | 335° |
| 2026-05-08 23:19 | 27.69526 | -81.97685 | 27397 ft | 436 kts | 335° |
| 2026-05-08 23:19 | 27.72426 | -81.98730 | 27680 ft | 438 kts | 335° |
| 2026-05-08 23:20 | 27.75335 | -81.99779 | 27975 ft | 440 kts | 335° |
| 2026-05-08 23:20 | 27.78139 | -82.00788 | 28244 ft | 442 kts | 336° |
| 2026-05-08 23:20 | 27.81132 | -82.01695 | 28516 ft | 447 kts | 339° |
| 2026-05-08 23:20 | 27.84177 | -82.02454 | 28867 ft | 449 kts | 340° |
| 2026-05-08 23:21 | 27.87241 | -82.03153 | 29255 ft | 449 kts | 341° |
| 2026-05-08 23:21 | 27.90295 | -82.03835 | 29685 ft | 447 kts | 341° |
| 2026-05-08 23:21 | 27.93341 | -82.04524 | 30096 ft | 445 kts | 340° |
| 2026-05-08 23:21 | 27.96369 | -82.05226 | 30419 ft | 444 kts | 340° |
| 2026-05-08 23:22 | 27.99347 | -82.05930 | 30745 ft | 443 kts | 340° |
| 2026-05-08 23:22 | 28.02347 | -82.06651 | 31101 ft | 441 kts | 340° |
| 2026-05-08 23:22 | 28.05337 | -82.07375 | 31448 ft | 439 kts | 340° |
| 2026-05-08 23:22 | 28.08326 | -82.08102 | 31796 ft | 438 kts | 340° |
| 2026-05-08 23:23 | 28.11296 | -82.08827 | 32155 ft | 436 kts | 339° |
| 2026-05-08 23:23 | 28.14263 | -82.09551 | 32530 ft | 435 kts | 339° |
| 2026-05-08 23:23 | 28.17223 | -82.10274 | 32852 ft | 435 kts | 339° |
| 2026-05-08 23:23 | 28.20183 | -82.10998 | 32982 ft | 437 kts | 339° |
| 2026-05-08 23:24 | 28.26145 | -82.12459 | 32976 ft | 438 kts | 339° |
| 2026-05-08 23:24 | 28.32064 | -82.13900 | 32984 ft | 432 kts | 339° |
| 2026-05-08 23:25 | 28.37942 | -82.15339 | 32983 ft | 432 kts | 339° |
| 2026-05-08 23:25 | 28.43822 | -82.16782 | 32978 ft | 433 kts | 339° |
| 2026-05-08 23:26 | 28.49715 | -82.18229 | 32979 ft | 434 kts | 339° |
| 2026-05-08 23:26 | 28.55617 | -82.19679 | 32974 ft | 434 kts | 339° |
| 2026-05-08 23:27 | 28.61517 | -82.21130 | 32981 ft | 434 kts | 339° |
| 2026-05-08 23:27 | 28.67418 | -82.22582 | 32993 ft | 434 kts | 339° |
| 2026-05-08 23:28 | 28.73286 | -82.24028 | 32999 ft | 434 kts | 339° |
| 2026-05-08 23:28 | 28.79185 | -82.25483 | 33007 ft | 434 kts | 338° |
| 2026-05-08 23:29 | 28.85074 | -82.26932 | 32964 ft | 433 kts | 338° |
| 2026-05-08 23:29 | 28.90951 | -82.28382 | 32975 ft | 431 kts | 338° |
| 2026-05-08 23:30 | 28.96809 | -82.29832 | 32977 ft | 430 kts | 338° |
| 2026-05-08 23:30 | 29.02649 | -82.31280 | 32982 ft | 429 kts | 338° |
| 2026-05-08 23:31 | 29.08479 | -82.32727 | 32985 ft | 429 kts | 338° |
| 2026-05-08 23:31 | 29.14302 | -82.34175 | 32986 ft | 428 kts | 338° |
| 2026-05-08 23:32 | 29.20121 | -82.35622 | 32986 ft | 428 kts | 338° |
| 2026-05-08 23:32 | 29.25929 | -82.37069 | 32981 ft | 427 kts | 338° |
| 2026-05-08 23:33 | 29.31732 | -82.38518 | 32993 ft | 427 kts | 338° |
| 2026-05-08 23:33 | 29.37543 | -82.39972 | 33000 ft | 428 kts | 337° |
| 2026-05-08 23:34 | 29.43374 | -82.41430 | 33001 ft | 429 kts | 337° |
| 2026-05-08 23:34 | 29.49198 | -82.42887 | 33007 ft | 429 kts | 337° |
| 2026-05-08 23:35 | 29.55031 | -82.44347 | 33014 ft | 429 kts | 337° |
| 2026-05-08 23:35 | 29.60857 | -82.45809 | 33015 ft | 429 kts | 337° |
| 2026-05-08 23:36 | 29.66654 | -82.47264 | 33025 ft | 430 kts | 337° |
| 2026-05-08 23:36 | 29.72503 | -82.48735 | 33016 ft | 430 kts | 337° |
| 2026-05-08 23:37 | 29.78346 | -82.50205 | 33032 ft | 430 kts | 337° |
| 2026-05-08 23:37 | 29.84196 | -82.51679 | 33030 ft | 430 kts | 337° |
| 2026-05-08 23:38 | 29.90037 | -82.53152 | 33030 ft | 430 kts | 337° |
| 2026-05-08 23:38 | 29.95886 | -82.54629 | 33014 ft | 430 kts | 337° |
| 2026-05-08 23:39 | 30.01737 | -82.56109 | 33002 ft | 431 kts | 337° |
| 2026-05-08 23:39 | 30.07589 | -82.57590 | 32991 ft | 431 kts | 337° |
| 2026-05-08 23:40 | 30.13445 | -82.59074 | 32993 ft | 431 kts | 337° |
| 2026-05-08 23:40 | 30.19299 | -82.60560 | 33029 ft | 431 kts | 337° |
| 2026-05-08 23:41 | 30.25167 | -82.62051 | 33044 ft | 432 kts | 337° |
| 2026-05-08 23:41 | 30.31038 | -82.63543 | 33044 ft | 432 kts | 337° |
| 2026-05-08 23:42 | 30.36920 | -82.65040 | 33045 ft | 433 kts | 337° |
| 2026-05-08 23:42 | 30.42804 | -82.66537 | 33055 ft | 433 kts | 337° |
| 2026-05-08 23:43 | 30.48691 | -82.68014 | 33051 ft | 437 kts | 340° |
| 2026-05-08 23:43 | 30.51756 | -82.68349 | 33051 ft | 448 kts | 349° |
| 2026-05-08 23:43 | 30.54907 | -82.68130 | 33065 ft | 459 kts | 357° |
| 2026-05-08 23:44 | 30.61255 | -82.67098 | 33062 ft | 462 kts | 358° |
| 2026-05-08 23:44 | 30.67567 | -82.66005 | 33061 ft | 461 kts | 358° |
| 2026-05-08 23:45 | 30.73916 | -82.64945 | 33064 ft | 461 kts | 358° |
| 2026-05-08 23:45 | 30.80271 | -82.63916 | 33070 ft | 461 kts | 358° |
| 2026-05-08 23:46 | 30.83448 | -82.63407 | 32936 ft | 463 kts | 358° |
| 2026-05-08 23:46 | 30.86655 | -82.62897 | 32510 ft | 465 kts | 358° |
| 2026-05-08 23:46 | 30.89844 | -82.62383 | 32199 ft | 459 kts | 358° |
| 2026-05-08 23:46 | 30.92972 | -82.61871 | 31950 ft | 449 kts | 358° |
| 2026-05-08 23:47 | 30.96048 | -82.61370 | 31686 ft | 446 kts | 358° |
| 2026-05-08 23:47 | 30.99136 | -82.60874 | 31450 ft | 448 kts | 358° |
| 2026-05-08 23:47 | 31.02223 | -82.60382 | 31218 ft | 450 kts | 358° |
| 2026-05-08 23:47 | 31.05337 | -82.59886 | 31107 ft | 455 kts | 358° |
| 2026-05-08 23:48 | 31.11621 | -82.58878 | 31028 ft | 454 kts | 358° |
| 2026-05-08 23:48 | 31.17861 | -82.57864 | 31037 ft | 453 kts | 358° |
| 2026-05-08 23:49 | 31.24120 | -82.56851 | 31024 ft | 455 kts | 358° |
| 2026-05-08 23:49 | 31.29333 | -82.56007 | 31024 ft | 455 kts | 358° |
| 2026-05-08 23:50 | 31.35624 | -82.54987 | 31017 ft | 457 kts | 359° |
| 2026-05-08 23:50 | 31.41932 | -82.53962 | 31009 ft | 458 kts | 359° |
| 2026-05-08 23:51 | 31.48255 | -82.52932 | 31011 ft | 459 kts | 359° |
| 2026-05-08 23:51 | 31.54579 | -82.51900 | 31007 ft | 459 kts | 359° |
| 2026-05-08 23:52 | 31.60906 | -82.50867 | 31019 ft | 459 kts | 359° |
| 2026-05-08 23:52 | 31.67222 | -82.49835 | 30999 ft | 458 kts | 359° |
| 2026-05-08 23:53 | 31.73534 | -82.48801 | 30996 ft | 458 kts | 359° |
| 2026-05-08 23:53 | 31.79841 | -82.47767 | 30998 ft | 457 kts | 359° |
| 2026-05-08 23:54 | 31.86137 | -82.46734 | 31030 ft | 456 kts | 359° |
| 2026-05-08 23:55 | 31.95519 | -82.45191 | 30996 ft | 455 kts | 359° |
| 2026-05-08 23:55 | 32.01775 | -82.44160 | 31010 ft | 453 kts | 359° |
| 2026-05-08 23:56 | 32.08013 | -82.43132 | 31025 ft | 452 kts | 359° |
| 2026-05-08 23:56 | 32.14250 | -82.42103 | 31045 ft | 452 kts | 358° |
| 2026-05-08 23:57 | 32.20480 | -82.41073 | 31028 ft | 452 kts | 358° |
| 2026-05-08 23:57 | 32.26703 | -82.40043 | 31026 ft | 451 kts | 358° |
| 2026-05-08 23:58 | 32.32920 | -82.39012 | 31008 ft | 451 kts | 358° |
| 2026-05-08 23:58 | 32.39138 | -82.37980 | 31043 ft | 451 kts | 358° |
| 2026-05-08 23:59 | 32.45365 | -82.36946 | 31009 ft | 453 kts | 358° |
| 2026-05-08 23:59 | 32.51608 | -82.35907 | 30999 ft | 453 kts | 358° |
| 2026-05-09 00:00 | 32.57854 | -82.34865 | 30998 ft | 453 kts | 358° |
| 2026-05-09 00:00 | 32.64061 | -82.33828 | 31002 ft | 453 kts | 358° |
| 2026-05-09 00:01 | 32.70312 | -82.32783 | 31009 ft | 454 kts | 358° |
| 2026-05-09 00:01 | 32.76576 | -82.31735 | 31003 ft | 455 kts | 358° |
| 2026-05-09 00:02 | 32.82854 | -82.30682 | 31005 ft | 456 kts | 358° |
| 2026-05-09 00:02 | 32.89139 | -82.29627 | 31006 ft | 456 kts | 358° |
| 2026-05-09 00:03 | 32.95429 | -82.28569 | 31012 ft | 457 kts | 358° |
| 2026-05-09 00:03 | 33.01722 | -82.27510 | 31006 ft | 457 kts | 358° |
| 2026-05-09 00:04 | 33.08023 | -82.26447 | 31012 ft | 457 kts | 358° |
| 2026-05-09 00:04 | 33.14328 | -82.25381 | 31013 ft | 457 kts | 358° |
| 2026-05-09 00:05 | 33.20628 | -82.24315 | 31015 ft | 457 kts | 358° |
| 2026-05-09 00:05 | 33.26926 | -82.23248 | 31020 ft | 457 kts | 358° |
| 2026-05-09 00:06 | 33.33218 | -82.22181 | 31027 ft | 457 kts | 358° |
| 2026-05-09 00:06 | 33.39507 | -82.21113 | 31022 ft | 456 kts | 358° |
| 2026-05-09 00:07 | 33.45788 | -82.20044 | 31054 ft | 457 kts | 357° |
| 2026-05-09 00:07 | 33.52097 | -82.18971 | 31038 ft | 458 kts | 357° |
| 2026-05-09 00:08 | 33.58405 | -82.17895 | 31029 ft | 458 kts | 357° |
| 2026-05-09 00:08 | 33.64720 | -82.16815 | 31024 ft | 458 kts | 357° |
| 2026-05-09 00:09 | 33.71038 | -82.15733 | 31054 ft | 459 kts | 357° |
| 2026-05-09 00:09 | 33.77356 | -82.14650 | 31038 ft | 459 kts | 357° |
| 2026-05-09 00:10 | 33.83636 | -82.13572 | 31022 ft | 458 kts | 356° |
| 2026-05-09 00:10 | 33.89943 | -82.12487 | 31030 ft | 457 kts | 356° |
| 2026-05-09 00:11 | 33.96238 | -82.11402 | 31035 ft | 456 kts | 356° |
| 2026-05-09 00:11 | 34.02478 | -82.10327 | 31048 ft | 456 kts | 356° |
| 2026-05-09 00:12 | 34.08752 | -82.09244 | 31037 ft | 455 kts | 356° |
| 2026-05-09 00:12 | 34.15012 | -82.08160 | 31044 ft | 454 kts | 356° |
| 2026-05-09 00:13 | 34.21261 | -82.07078 | 31046 ft | 453 kts | 356° |
| 2026-05-09 00:13 | 34.27521 | -82.05995 | 31053 ft | 455 kts | 356° |
| 2026-05-09 00:14 | 34.33805 | -82.04905 | 31043 ft | 457 kts | 356° |
| 2026-05-09 00:14 | 34.40117 | -82.03807 | 31040 ft | 459 kts | 356° |
| 2026-05-09 00:15 | 34.46439 | -82.02705 | 31028 ft | 460 kts | 356° |
| 2026-05-09 00:15 | 34.52784 | -82.01598 | 31047 ft | 461 kts | 354° |
| 2026-05-09 00:16 | 34.59147 | -82.00484 | 31035 ft | 462 kts | 354° |
| 2026-05-09 00:16 | 34.65508 | -81.99368 | 31030 ft | 461 kts | 354° |
| 2026-05-09 00:17 | 34.71858 | -81.98117 | 31025 ft | 460 kts | 355° |
| 2026-05-09 00:17 | 34.78178 | -81.97069 | 31029 ft | 458 kts | 353° |
| 2026-05-09 00:18 | 34.84440 | -81.96022 | 31029 ft | 457 kts | 353° |
| 2026-05-09 00:18 | 34.90719 | -81.94924 | 31013 ft | 455 kts | 353° |
| 2026-05-09 00:19 | 34.97016 | -81.93809 | 31032 ft | 453 kts | 353° |
| 2026-05-09 00:19 | 35.03198 | -81.92764 | 31026 ft | 447 kts | 349° |
| 2026-05-09 00:19 | 35.06278 | -81.92699 | 31026 ft | 429 kts | 341° |
| 2026-05-09 00:20 | 35.09205 | -81.92877 | 31020 ft | 426 kts | 340° |
| 2026-05-09 00:20 | 35.15120 | -81.93357 | 31013 ft | 426 kts | 340° |
| 2026-05-09 00:21 | 35.21044 | -81.93817 | 31018 ft | 428 kts | 340° |
| 2026-05-09 00:21 | 35.27001 | -81.94231 | 31069 ft | 429 kts | 340° |
| 2026-05-09 00:22 | 35.32960 | -81.94618 | 31048 ft | 428 kts | 340° |
| 2026-05-09 00:22 | 35.38893 | -81.94994 | 31039 ft | 425 kts | 340° |
| 2026-05-09 00:23 | 35.44779 | -81.95372 | 31045 ft | 422 kts | 340° |
| 2026-05-09 00:23 | 35.50627 | -81.95751 | 31070 ft | 420 kts | 339° |
| 2026-05-09 00:24 | 35.56471 | -81.96136 | 31048 ft | 421 kts | 339° |
| 2026-05-09 00:24 | 35.62311 | -81.96519 | 31029 ft | 420 kts | 340° |
| 2026-05-09 00:25 | 35.68156 | -81.96903 | 31008 ft | 420 kts | 340° |
| 2026-05-09 00:25 | 35.74004 | -81.97287 | 31006 ft | 421 kts | 340° |
| 2026-05-09 00:26 | 35.79855 | -81.97669 | 30999 ft | 422 kts | 340° |
| 2026-05-09 00:26 | 35.85711 | -81.98050 | 30997 ft | 422 kts | 340° |
| 2026-05-09 00:27 | 35.91581 | -81.98431 | 30999 ft | 422 kts | 340° |
| 2026-05-09 00:27 | 35.97424 | -81.98818 | 31004 ft | 424 kts | 340° |
| 2026-05-09 00:28 | 36.03292 | -81.99273 | 31022 ft | 421 kts | 339° |
| 2026-05-09 00:28 | 36.09176 | -81.99624 | 30973 ft | 424 kts | 340° |
| 2026-05-09 00:29 | 36.15087 | -81.99989 | 30971 ft | 422 kts | 339° |
| 2026-05-09 00:29 | 36.20899 | -82.00367 | 30972 ft | 421 kts | 339° |
| 2026-05-09 00:30 | 36.26754 | -82.00757 | 30979 ft | 422 kts | 339° |
| 2026-05-09 00:30 | 36.32599 | -82.01153 | 30977 ft | 420 kts | 339° |
| 2026-05-09 00:31 | 36.38459 | -82.01540 | 30965 ft | 422 kts | 339° |
| 2026-05-09 00:31 | 36.44320 | -82.01929 | 30981 ft | 422 kts | 339° |
| 2026-05-09 00:32 | 36.50200 | -82.02316 | 31019 ft | 423 kts | 339° |
| 2026-05-09 00:32 | 36.56092 | -82.02708 | 30961 ft | 423 kts | 339° |
| 2026-05-09 00:33 | 36.61958 | -82.03102 | 31001 ft | 422 kts | 339° |
| 2026-05-09 00:33 | 36.67817 | -82.03490 | 31003 ft | 421 kts | 339° |
| 2026-05-09 00:34 | 36.73658 | -82.03882 | 31044 ft | 420 kts | 340° |
| 2026-05-09 00:34 | 36.79491 | -82.04281 | 30990 ft | 419 kts | 340° |
| 2026-05-09 00:35 | 36.85297 | -82.04678 | 30988 ft | 415 kts | 339° |
| 2026-05-09 00:35 | 36.91082 | -82.05072 | 30974 ft | 417 kts | 340° |
| 2026-05-09 00:36 | 36.96883 | -82.05456 | 31017 ft | 418 kts | 340° |
| 2026-05-09 00:36 | 37.02706 | -82.05850 | 31008 ft | 421 kts | 341° |
| 2026-05-09 00:37 | 37.08567 | -82.06245 | 31005 ft | 421 kts | 341° |
| 2026-05-09 00:37 | 37.14386 | -82.06626 | 30998 ft | 421 kts | 341° |
| 2026-05-09 00:38 | 37.20233 | -82.07035 | 30967 ft | 420 kts | 340° |
| 2026-05-09 00:38 | 37.26052 | -82.07435 | 30981 ft | 418 kts | 341° |
| 2026-05-09 00:39 | 37.31856 | -82.07817 | 30968 ft | 418 kts | 341° |
| 2026-05-09 00:39 | 37.36720 | -82.08152 | 30943 ft | 418 kts | 341° |
| 2026-05-09 00:40 | 37.42482 | -82.08546 | 30955 ft | 417 kts | 341° |
| 2026-05-09 00:40 | 37.48271 | -82.08950 | 30964 ft | 417 kts | 342° |
| 2026-05-09 00:41 | 37.56963 | -82.09525 | 30932 ft | 417 kts | 342° |
| 2026-05-09 00:41 | 37.62745 | -82.09933 | 30947 ft | 415 kts | 342° |
| 2026-05-09 00:42 | 37.68541 | -82.10298 | 30933 ft | 418 kts | 342° |
| 2026-05-09 00:42 | 37.74358 | -82.10721 | 30947 ft | 420 kts | 343° |
| 2026-05-09 00:43 | 37.80208 | -82.11137 | 30945 ft | 421 kts | 343° |
| 2026-05-09 00:43 | 37.86024 | -82.11621 | 30949 ft | 415 kts | 342° |
| 2026-05-09 00:44 | 37.91798 | -82.12101 | 30996 ft | 417 kts | 343° |
| 2026-05-09 00:44 | 37.97664 | -82.12425 | 30965 ft | 423 kts | 344° |
| 2026-05-09 00:45 | 38.03472 | -82.12754 | 30949 ft | 415 kts | 343° |
| 2026-05-09 00:45 | 38.09264 | -82.13150 | 30964 ft | 418 kts | 343° |
| 2026-05-09 00:46 | 38.15024 | -82.13548 | 30925 ft | 411 kts | 343° |
| 2026-05-09 00:46 | 38.17846 | -82.13734 | 30714 ft | 404 kts | 343° |
| 2026-05-09 00:46 | 38.20629 | -82.13924 | 30399 ft | 398 kts | 343° |
| 2026-05-09 00:47 | 38.23376 | -82.14115 | 30027 ft | 391 kts | 345° |
| 2026-05-09 00:47 | 38.26071 | -82.14301 | 29641 ft | 385 kts | 344° |
| 2026-05-09 00:47 | 38.28721 | -82.14487 | 29273 ft | 377 kts | 344° |
| 2026-05-09 00:47 | 38.31316 | -82.14671 | 28904 ft | 370 kts | 344° |
| 2026-05-09 00:48 | 38.33869 | -82.14852 | 28542 ft | 364 kts | 344° |
| 2026-05-09 00:48 | 38.36387 | -82.15032 | 28195 ft | 362 kts | 345° |
| 2026-05-09 00:48 | 38.38916 | -82.15219 | 27847 ft | 369 kts | 345° |
| 2026-05-09 00:48 | 38.41519 | -82.15413 | 27497 ft | 376 kts | 346° |
| 2026-05-09 00:49 | 38.44110 | -82.15591 | 27095 ft | 371 kts | 346° |
| 2026-05-09 00:49 | 38.46669 | -82.15763 | 26724 ft | 364 kts | 346° |
| 2026-05-09 00:49 | 38.49176 | -82.15953 | 26370 ft | 356 kts | 344° |
| 2026-05-09 00:49 | 38.51605 | -82.16315 | 26067 ft | 348 kts | 342° |
| 2026-05-09 00:50 | 38.53977 | -82.16760 | 25716 ft | 342 kts | 341° |
| 2026-05-09 00:50 | 38.56331 | -82.17231 | 25372 ft | 344 kts | 341° |
| 2026-05-09 00:50 | 38.58722 | -82.17717 | 25050 ft | 352 kts | 341° |
| 2026-05-09 00:50 | 38.61138 | -82.18196 | 24674 ft | 350 kts | 342° |
| 2026-05-09 00:51 | 38.63528 | -82.18656 | 24337 ft | 344 kts | 342° |
| 2026-05-09 00:51 | 38.65885 | -82.19101 | 23982 ft | 340 kts | 342° |
| 2026-05-09 00:51 | 38.68218 | -82.19542 | 23627 ft | 338 kts | 343° |
| 2026-05-09 00:51 | 38.70533 | -82.19977 | 23256 ft | 336 kts | 343° |
| 2026-05-09 00:52 | 38.72849 | -82.20414 | 22877 ft | 339 kts | 343° |
| 2026-05-09 00:52 | 38.75199 | -82.20860 | 22504 ft | 341 kts | 343° |
| 2026-05-09 00:52 | 38.77532 | -82.21297 | 22141 ft | 336 kts | 343° |
| 2026-05-09 00:52 | 38.79823 | -82.21723 | 21803 ft | 330 kts | 343° |
| 2026-05-09 00:53 | 38.82084 | -82.22144 | 21463 ft | 327 kts | 343° |
| 2026-05-09 00:53 | 38.84327 | -82.22565 | 21124 ft | 324 kts | 343° |
| 2026-05-09 00:53 | 38.86565 | -82.22988 | 20820 ft | 328 kts | 343° |
| 2026-05-09 00:53 | 38.88837 | -82.23421 | 20477 ft | 332 kts | 343° |
| 2026-05-09 00:54 | 38.91108 | -82.23849 | 20128 ft | 328 kts | 343° |
| 2026-05-09 00:54 | 38.93357 | -82.24270 | 19697 ft | 326 kts | 343° |
| 2026-05-09 00:54 | 38.95590 | -82.24690 | 19127 ft | 324 kts | 344° |
| 2026-05-09 00:54 | 38.97819 | -82.25110 | 18552 ft | 323 kts | 344° |
| 2026-05-09 00:55 | 39.00036 | -82.25528 | 17989 ft | 322 kts | 344° |
| 2026-05-09 00:55 | 39.02235 | -82.25942 | 17442 ft | 318 kts | 344° |
| 2026-05-09 00:55 | 39.04378 | -82.26345 | 16933 ft | 313 kts | 344° |
| 2026-05-09 00:55 | 39.06525 | -82.26750 | 16406 ft | 310 kts | 344° |
| 2026-05-09 00:56 | 39.08642 | -82.27149 | 15976 ft | 304 kts | 344° |
| 2026-05-09 00:56 | 39.10696 | -82.27533 | 15706 ft | 295 kts | 343° |
| 2026-05-09 00:56 | 39.12725 | -82.27919 | 15430 ft | 295 kts | 343° |
| 2026-05-09 00:56 | 39.14765 | -82.28309 | 15103 ft | 298 kts | 343° |
| 2026-05-09 00:57 | 39.16820 | -82.28702 | 14793 ft | 300 kts | 343° |
| 2026-05-09 00:57 | 39.18888 | -82.29097 | 14480 ft | 299 kts | 343° |
| 2026-05-09 00:57 | 39.20941 | -82.29485 | 14162 ft | 298 kts | 344° |
| 2026-05-09 00:57 | 39.22988 | -82.29873 | 13861 ft | 296 kts | 344° |
| 2026-05-09 00:58 | 39.25022 | -82.30260 | 13523 ft | 295 kts | 344° |
| 2026-05-09 00:58 | 39.27043 | -82.30643 | 13177 ft | 293 kts | 344° |
| 2026-05-09 00:58 | 39.29048 | -82.31024 | 12870 ft | 290 kts | 343° |
| 2026-05-09 00:58 | 39.31043 | -82.31404 | 12552 ft | 291 kts | 344° |
| 2026-05-09 00:59 | 39.33052 | -82.31790 | 12253 ft | 293 kts | 344° |
| 2026-05-09 00:59 | 39.35079 | -82.32179 | 11936 ft | 297 kts | 345° |
| 2026-05-09 00:59 | 39.37127 | -82.32570 | 11600 ft | 297 kts | 345° |
| 2026-05-09 00:59 | 39.39167 | -82.32959 | 11282 ft | 296 kts | 345° |
| 2026-05-09 01:00 | 39.41204 | -82.33346 | 10960 ft | 296 kts | 345° |
| 2026-05-09 01:00 | 39.43235 | -82.33734 | 10638 ft | 295 kts | 346° |
| 2026-05-09 01:00 | 39.45257 | -82.34121 | 10345 ft | 294 kts | 346° |
| 2026-05-09 01:00 | 39.47276 | -82.34506 | 10218 ft | 292 kts | 346° |
| 2026-05-09 01:01 | 39.49264 | -82.34885 | 10076 ft | 286 kts | 346° |
| 2026-05-09 01:01 | 39.51186 | -82.35411 | 9891 ft | 278 kts | 336° |
| 2026-05-09 01:01 | 39.52966 | -82.36314 | 9685 ft | 274 kts | 331° |
| 2026-05-09 01:01 | 39.54717 | -82.37302 | 9479 ft | 276 kts | 331° |
| 2026-05-09 01:02 | 39.56484 | -82.38302 | 9281 ft | 278 kts | 331° |
| 2026-05-09 01:02 | 39.58264 | -82.39294 | 9080 ft | 280 kts | 331° |
| 2026-05-09 01:02 | 39.60063 | -82.40282 | 8861 ft | 280 kts | 331° |
| 2026-05-09 01:02 | 39.61848 | -82.41251 | 8636 ft | 276 kts | 331° |
| 2026-05-09 01:03 | 39.63611 | -82.42204 | 8425 ft | 272 kts | 331° |
| 2026-05-09 01:03 | 39.65350 | -82.43140 | 8216 ft | 269 kts | 331° |
| 2026-05-09 01:03 | 39.67056 | -82.44058 | 8037 ft | 269 kts | 331° |
| 2026-05-09 01:03 | 39.68786 | -82.44989 | 7839 ft | 269 kts | 331° |
| 2026-05-09 01:04 | 39.70514 | -82.45917 | 7641 ft | 268 kts | 331° |
| 2026-05-09 01:04 | 39.72236 | -82.46844 | 7435 ft | 268 kts | 332° |
| 2026-05-09 01:04 | 39.73903 | -82.47935 | 7244 ft | 262 kts | 320° |
| 2026-05-09 01:04 | 39.75358 | -82.49336 | 7062 ft | 259 kts | 316° |
| 2026-05-09 01:05 | 39.76751 | -82.50776 | 6890 ft | 259 kts | 315° |
| 2026-05-09 01:05 | 39.78184 | -82.52256 | 6695 ft | 260 kts | 315° |
| 2026-05-09 01:05 | 39.81018 | -82.55138 | 6321 ft | 261 kts | 316° |
| 2026-05-09 01:06 | 39.82450 | -82.56579 | 6121 ft | 260 kts | 316° |
| 2026-05-09 01:06 | 39.83877 | -82.58006 | 6037 ft | 257 kts | 316° |
| 2026-05-09 01:06 | 39.85288 | -82.59413 | 6007 ft | 251 kts | 316° |
| 2026-05-09 01:06 | 39.86637 | -82.60754 | 5988 ft | 238 kts | 316° |
| 2026-05-09 01:07 | 39.88062 | -82.61793 | 5971 ft | 235 kts | 332° |
| 2026-05-09 01:07 | 39.89615 | -82.62552 | 5577 ft | 241 kts | 333° |
| 2026-05-09 01:07 | 39.91179 | -82.63327 | 5238 ft | 238 kts | 333° |
| 2026-05-09 01:07 | 39.92713 | -82.64092 | 4853 ft | 234 kts | 333° |
| 2026-05-09 01:08 | 39.94213 | -82.64843 | 4452 ft | 229 kts | 333° |
| 2026-05-09 01:08 | 39.95656 | -82.65645 | 4045 ft | 222 kts | 322° |
| 2026-05-09 01:08 | 39.96732 | -82.66982 | 3674 ft | 209 kts | 304° |
| 2026-05-09 01:08 | 39.97621 | -82.68446 | 3312 ft | 203 kts | 301° |
| 2026-05-09 01:09 | 39.98145 | -82.70090 | 3042 ft | 197 kts | 273° |
| 2026-05-09 01:09 | 39.98281 | -82.71869 | 3009 ft | 195 kts | 273° |
| 2026-05-09 01:09 | 39.98395 | -82.73593 | 2889 ft | 188 kts | 271° |
| 2026-05-09 01:09 | 39.98486 | -82.75263 | 2667 ft | 182 kts | 272° |
| 2026-05-09 01:10 | 39.98576 | -82.76879 | 2432 ft | 176 kts | 271° |
| 2026-05-09 01:10 | 39.98663 | -82.78469 | 2208 ft | 174 kts | 273° |
| 2026-05-09 01:10 | 39.98748 | -82.79978 | 1985 ft | 159 kts | 273° |
| 2026-05-09 01:10 | 39.98825 | -82.81367 | 1733 ft | 149 kts | 272° |
| 2026-05-09 01:11 | 39.98896 | -82.82726 | 1517 ft | 153 kts | 274° |
| 2026-05-09 01:11 | 39.98977 | -82.84129 | 1314 ft | 156 kts | 273° |
| 2026-05-09 01:11 | 39.99056 | -82.85529 | 1145 ft | 160 kts | 274° |
| 2026-05-09 01:11 | 39.99141 | -82.86964 | 932 ft | 157 kts | 274° |
| 2026-05-09 01:12 | 39.99221 | -82.88352 | 824 ft | 139 kts | 274° |
| 2026-05-09 01:12 | 39.99276 | -82.89317 | 823 ft | 77 kts | 274° |
| 2026-05-09 01:12 | 39.99301 | -82.89755 | 824 ft | 33 kts | 275° |
| 2026-05-09 01:12 | 39.99355 | -82.90053 | 824 ft | 33 kts | 295° |
| 2026-05-09 01:13 | 39.99471 | -82.90292 | 823 ft | 22 kts | 308° |
| 2026-05-09 01:13 | 39.99495 | -82.90321 | 824 ft | 3 kts | 341° |
| 2026-05-09 01:13 | 39.99507 | -82.90288 | 824 ft | 5 kts | 95° |
| 2026-05-09 01:13 | 39.99504 | -82.90238 | 823 ft | 6 kts | 94° |
| 2026-05-09 01:14 | 39.99500 | -82.90169 | 823 ft | 9 kts | 94° |
| 2026-05-09 01:14 | 39.99495 | -82.90079 | 824 ft | 6 kts | 94° |
| 2026-05-09 01:14 | 39.99493 | -82.90046 | 824 ft | 4 kts | 94° |
| 2026-05-09 01:14 | 39.99493 | -82.90042 | 824 ft | 0 kts | 93° |
| 2026-05-09 01:15 | 39.99488 | -82.89939 | 824 ft | 18 kts | 94° |
| 2026-05-09 01:15 | 39.99477 | -82.89781 | 824 ft | 17 kts | 94° |
| 2026-05-09 01:15 | 39.99469 | -82.89629 | 821 ft | 17 kts | 94° |
| 2026-05-09 01:16 | 39.99461 | -82.89482 | 824 ft | 16 kts | 93° |
| 2026-05-09 01:16 | 39.99456 | -82.89341 | 824 ft | 15 kts | 93° |
| 2026-05-09 01:16 | 39.99448 | -82.89205 | 824 ft | 15 kts | 96° |
| 2026-05-09 01:17 | 39.99432 | -82.88952 | 824 ft | 13 kts | 94° |
| 2026-05-09 01:17 | 39.99426 | -82.88833 | 824 ft | 13 kts | 93° |
| 2026-05-09 01:17 | 39.99419 | -82.88718 | 824 ft | 13 kts | 96° |
| 2026-05-09 01:17 | 39.99412 | -82.88606 | 824 ft | 12 kts | 95° |
| 2026-05-09 01:18 | 39.99405 | -82.88496 | 824 ft | 12 kts | 94° |
| 2026-05-09 01:18 | 39.99401 | -82.88389 | 824 ft | 12 kts | 91° |
| 2026-05-09 01:18 | 39.99456 | -82.88326 | 824 ft | 11 kts | 12° |
| 2026-05-09 01:18 | 39.99534 | -82.88317 | 824 ft | 11 kts | 5° |
| 2026-05-09 01:19 | 39.99595 | -82.88370 | 824 ft | 11 kts | 330° |
| 2026-05-09 01:19 | 39.99624 | -82.88385 | 823 ft | 0 kts | 342° |
| 2026-05-09 01:19 | 39.99635 | -82.88389 | 822 ft | 5 kts | 343° |
| 2026-05-09 01:19 | 39.99647 | -82.88394 | 821 ft | 0 kts | 343° |